Time;durP1;ratioP1;P1;durP2;ratioP2;P2;SDS_P1;SDS_P2;PMS_P1;PMS_P2;Temp;Humidity;BMP_temperature;BMP_pressure;BME280_temperature;BME280_humidity;BME280_pressure;Samples;Min_cycle;Max_cycle;Signal;HPM_P1;HPM_P2
2023/06/27 00:00:21;;;;;;;14.20;10.10;;;;;;;;;;5082289;28;20178;-71
2023/06/27 00:02:47;;;;;;;13.43;9.52;;;;;;;;;;5083111;28;20028;-71
2023/06/27 00:05:13;;;;;;;13.65;9.13;;;;;;;;;;5076849;28;20620;-71
2023/06/27 00:07:41;;;;;;;19.75;10.45;;;;;;;;;;5081117;28;20024;-71
2023/06/27 00:10:09;;;;;;;16.02;9.73;;;;;;;;;;5072382;28;20029;-70
2023/06/27 00:12:35;;;;;;;20.17;9.95;;;;;;;;;;5069337;28;20020;-70
2023/06/27 00:15:05;;;;;;;14.23;9.27;;;;;;;;;;5053091;28;20028;-70
2023/06/27 00:17:34;;;;;;;13.38;9.52;;;;;;;;;;5053127;28;20502;-70
2023/06/27 00:20:02;;;;;;;15.80;9.45;;;;;;;;;;5053016;28;20032;-71
2023/06/27 00:22:28;;;;;;;11.60;8.95;;;;;;;;;;5052506;28;20044;-70
2023/06/27 00:24:54;;;;;;;21.13;10.10;;;;;;;;;;5052616;28;20086;-70
2023/06/27 00:27:20;;;;;;;16.17;10.23;;;;;;;;;;5052849;28;20024;-70
2023/06/27 00:29:46;;;;;;;13.23;9.73;;;;;;;;;;5052896;28;20036;-70
2023/06/27 00:32:12;;;;;;;16.23;10.00;;;;;;;;;;5054598;28;20032;-70
2023/06/27 00:34:37;;;;;;;18.30;9.75;;;;;;;;;;5054781;28;20029;-69
2023/06/27 00:37:03;;;;;;;11.13;9.13;;;;;;;;;;5054135;28;20110;-70
2023/06/27 00:39:29;;;;;;;12.18;8.65;;;;;;;;;;5096467;28;20032;-70
2023/06/27 00:41:55;;;;;;;12.10;8.88;;;;;;;;;;5082298;28;20025;-70
2023/06/27 00:44:20;;;;;;;13.90;9.63;;;;;;;;;;5076267;28;20039;-69
2023/06/27 00:46:48;;;;;;;19.85;9.80;;;;;;;;;;5074190;28;20484;-70
2023/06/27 00:49:17;;;;;;;14.30;9.82;;;;;;;;;;5074292;28;20521;-70
2023/06/27 00:51:44;;;;;;;15.40;10.05;;;;;;;;;;5078888;28;20024;-71
2023/06/27 00:54:10;;;;;;;19.95;10.45;;;;;;;;;;5069581;28;20032;-71
2023/06/27 00:56:36;;;;;;;15.30;10.73;;;;;;;;;;5066228;28;20545;-71
2023/06/27 00:59:04;;;;;;;17.00;10.65;;;;;;;;;;5062763;28;20053;-70
2023/06/27 01:01:31;;;;;;;15.07;10.68;;;;;;;;;;5069213;28;20056;-70
2023/06/27 01:03:57;;;;;;;21.77;10.90;;;;;;;;;;5061911;28;20036;-70
2023/06/27 01:06:54;;;;;;;15.65;10.55;;;;;;;;;;5052430;28;20517;-70
2023/06/27 01:09:48;;;;;;;16.95;9.80;;;;;;;;;;5063847;28;20047;-70
2023/06/27 01:12:27;;;;;;;17.83;9.65;;;;;;;;;;5053548;28;20555;-70
2023/06/27 01:14:56;;;;;;;13.23;9.43;;;;;;;;;;5065945;28;20032;-70
2023/06/27 01:17:24;;;;;;;15.65;9.30;;;;;;;;;;5081736;28;20133;-70
2023/06/27 01:19:52;;;;;;;15.82;9.02;;;;;;;;;;5052393;28;20043;-71
2023/06/27 01:22:28;;;;;;;19.75;10.68;;;;;;;;;;5065462;28;20082;-70
2023/06/27 01:24:54;;;;;;;17.23;10.05;;;;;;;;;;5081809;28;20417;-71
2023/06/27 01:27:20;;;;;;;16.60;9.88;;;;;;;;;;5092337;28;20031;-70
2023/06/27 01:29:45;;;;;;;16.20;10.45;;;;;;;;;;5074598;28;20097;-70
2023/06/27 01:32:15;;;;;;;16.20;9.98;;;;;;;;;;5071645;28;20016;-70
2023/06/27 01:35:05;;;;;;;12.80;9.20;;;;;;;;;;5073168;28;20398;-70
2023/06/27 01:37:41;;;;;;;15.13;9.52;;;;;;;;;;5081424;28;20082;-70
2023/06/27 01:40:16;;;;;;;14.48;10.13;;;;;;;;;;5085536;28;20081;-71
2023/06/27 01:42:43;;;;;;;17.00;9.50;;;;;;;;;;5091369;28;20111;-70
2023/06/27 01:45:14;;;;;;;13.00;9.32;;;;;;;;;;5088547;28;20028;-70
2023/06/27 01:47:42;;;;;;;15.48;9.48;;;;;;;;;;5073028;28;20032;-71
2023/06/27 01:50:10;;;;;;;13.63;8.55;;;;;;;;;;5071308;28;20048;-70
2023/06/27 01:52:39;;;;;;;13.30;8.07;;;;;;;;;;5072793;28;20064;-70
2023/06/27 01:55:05;;;;;;;13.43;8.57;;;;;;;;;;5071108;28;20081;-70
2023/06/27 01:57:32;;;;;;;12.82;8.02;;;;;;;;;;5071295;28;20029;-70
2023/06/27 01:59:58;;;;;;;11.65;7.63;;;;;;;;;;5070672;28;20086;-70
2023/06/27 02:02:24;;;;;;;13.65;8.48;;;;;;;;;;5072388;28;20121;-70
2023/06/27 02:04:49;;;;;;;13.13;8.93;;;;;;;;;;5071001;28;20115;-70
2023/06/27 02:07:15;;;;;;;11.98;8.38;;;;;;;;;;5071178;28;20033;-70
2023/06/27 02:09:41;;;;;;;10.43;7.88;;;;;;;;;;5070434;28;20024;-71
2023/06/27 02:12:09;;;;;;;15.50;8.90;;;;;;;;;;5072546;28;20032;-70
2023/06/27 02:14:35;;;;;;;12.20;8.02;;;;;;;;;;5087174;28;20051;-70
2023/06/27 02:17:01;;;;;;;14.07;8.57;;;;;;;;;;5086985;28;20043;-71
2023/06/27 02:19:26;;;;;;;15.23;8.40;;;;;;;;;;5062137;28;20020;-70
2023/06/27 02:21:52;;;;;;;14.02;8.32;;;;;;;;;;5072163;28;20099;-70
2023/06/27 02:24:18;;;;;;;12.50;8.50;;;;;;;;;;5070444;28;20024;-70
2023/06/27 02:26:44;;;;;;;14.77;9.82;;;;;;;;;;5072675;28;20162;-70
2023/06/27 02:29:11;;;;;;;17.85;10.18;;;;;;;;;;5061919;28;20021;-70
2023/06/27 02:31:37;;;;;;;16.90;10.02;;;;;;;;;;5050936;28;20541;-70
2023/06/27 02:34:04;;;;;;;17.30;10.52;;;;;;;;;;5050735;28;20372;-70
2023/06/27 02:36:31;;;;;;;15.48;10.52;;;;;;;;;;5052002;28;20037;-70
2023/06/27 02:39:00;;;;;;;21.60;11.15;;;;;;;;;;5066931;28;20028;-70
2023/06/27 02:41:26;;;;;;;15.05;11.02;;;;;;;;;;5050618;28;20033;-69
2023/06/27 02:43:52;;;;;;;19.75;10.18;;;;;;;;;;5058519;28;20035;-69
2023/06/27 02:46:18;;;;;;;17.73;10.65;;;;;;;;;;5069206;28;20108;-69
2023/06/27 02:48:43;;;;;;;17.73;10.02;;;;;;;;;;5081659;28;20024;-70
2023/06/27 02:51:09;;;;;;;20.77;11.80;;;;;;;;;;5083621;28;20032;-69
2023/06/27 02:53:35;;;;;;;22.38;11.30;;;;;;;;;;5087155;28;20016;-70
2023/06/27 02:56:02;;;;;;;21.85;11.90;;;;;;;;;;5070993;28;20436;-70
2023/06/27 02:58:30;;;;;;;19.20;11.07;;;;;;;;;;5054108;28;20029;-69
2023/06/27 03:00:59;;;;;;;17.17;9.63;;;;;;;;;;5070336;28;20564;-70
2023/06/27 03:03:25;;;;;;;16.95;9.90;;;;;;;;;;5086744;28;20024;-70
2023/06/27 03:05:51;;;;;;;13.27;8.82;;;;;;;;;;5070185;28;20063;-70
2023/06/27 03:08:18;;;;;;;15.50;9.00;;;;;;;;;;5086551;28;20486;-70
2023/06/27 03:10:44;;;;;;;20.77;9.60;;;;;;;;;;5070383;28;20097;-71
2023/06/27 03:13:11;;;;;;;25.02;10.45;;;;;;;;;;5087504;28;20592;-71
2023/06/27 03:15:38;;;;;;;19.13;9.75;;;;;;;;;;5070597;28;20039;-71
2023/06/27 03:18:04;;;;;;;23.83;11.77;;;;;;;;;;5068723;28;20024;-71
2023/06/27 03:20:30;;;;;;;16.70;9.85;;;;;;;;;;5079017;28;20027;-71
2023/06/27 03:22:56;;;;;;;17.25;10.02;;;;;;;;;;5071422;28;20496;-71
2023/06/27 03:25:22;;;;;;;17.40;10.23;;;;;;;;;;5054795;28;20035;-71
2023/06/27 03:27:48;;;;;;;16.23;9.05;;;;;;;;;;5050268;28;20406;-71
2023/06/27 03:30:14;;;;;;;15.70;8.93;;;;;;;;;;5049679;28;20037;-70
2023/06/27 03:32:41;;;;;;;18.02;9.05;;;;;;;;;;5062158;28;20020;-70
2023/06/27 03:35:07;;;;;;;16.23;8.60;;;;;;;;;;5077242;28;20059;-71
2023/06/27 03:37:33;;;;;;;18.95;9.02;;;;;;;;;;5082058;28;20029;-72
2023/06/27 03:40:00;;;;;;;11.63;8.63;;;;;;;;;;5061781;28;20036;-70
2023/06/27 03:42:26;;;;;;;12.13;7.72;;;;;;;;;;5055118;28;20483;-70
2023/06/27 03:44:52;;;;;;;25.33;9.73;;;;;;;;;;5055122;28;20075;-70
2023/06/27 03:47:18;;;;;;;15.73;8.93;;;;;;;;;;5070370;28;20344;-70
2023/06/27 03:49:43;;;;;;;12.68;7.93;;;;;;;;;;5053335;28;20371;-71
2023/06/27 03:52:10;;;;;;;23.70;9.32;;;;;;;;;;5054961;28;20032;-71
2023/06/27 03:54:36;;;;;;;12.85;7.65;;;;;;;;;;5055119;28;20071;-70
2023/06/27 03:57:02;;;;;;;12.18;8.38;;;;;;;;;;5053758;28;20069;-70
2023/06/27 03:59:27;;;;;;;10.77;7.22;;;;;;;;;;5053586;28;20059;-70
2023/06/27 04:01:53;;;;;;;13.52;7.90;;;;;;;;;;5068419;28;20422;-71
2023/06/27 04:04:22;;;;;;;16.23;7.63;;;;;;;;;;5054318;28;20036;-71
2023/06/27 04:06:49;;;;;;;14.10;7.30;;;;;;;;;;5036939;28;20029;-70
2023/06/27 04:09:15;;;;;;;11.07;7.38;;;;;;;;;;5054629;28;20101;-69
2023/06/27 04:11:41;;;;;;;11.63;7.25;;;;;;;;;;5054982;28;20017;-71
2023/06/27 04:14:06;;;;;;;9.88;6.90;;;;;;;;;;5053481;28;20098;-70
2023/06/27 04:16:33;;;;;;;11.32;6.80;;;;;;;;;;5066578;28;20025;-70
2023/06/27 04:18:59;;;;;;;12.88;7.07;;;;;;;;;;5077191;28;20571;-71
2023/06/27 04:21:26;;;;;;;10.68;6.75;;;;;;;;;;5093752;28;20031;-70
2023/06/27 04:23:54;;;;;;;13.50;7.30;;;;;;;;;;5093650;28;20032;-70
2023/06/27 04:26:20;;;;;;;9.02;6.80;;;;;;;;;;5093488;28;20028;-71
2023/06/27 04:28:47;;;;;;;12.32;6.93;;;;;;;;;;5094335;28;20038;-71
2023/06/27 04:31:12;;;;;;;15.82;7.35;;;;;;;;;;5093186;28;20035;-70
2023/06/27 04:33:42;;;;;;;11.75;6.75;;;;;;;;;;5093387;28;20055;-69
2023/06/27 04:36:08;;;;;;;12.80;6.70;;;;;;;;;;5094256;28;20084;-70
2023/06/27 04:38:37;;;;;;;9.77;6.18;;;;;;;;;;5094012;28;20040;-70
2023/06/27 04:41:11;;;;;;;12.38;6.75;;;;;;;;;;5084775;28;20352;-70
2023/06/27 04:43:39;;;;;;;9.82;6.40;;;;;;;;;;5073645;28;20033;-69
2023/06/27 04:46:05;;;;;;;12.10;6.55;;;;;;;;;;5079266;28;20029;-71
2023/06/27 04:48:31;;;;;;;8.40;5.93;;;;;;;;;;5073839;28;20225;-71
2023/06/27 04:50:57;;;;;;;17.42;8.75;;;;;;;;;;5073586;28;20107;-71
2023/06/27 04:53:23;;;;;;;12.85;7.30;;;;;;;;;;5072472;28;20035;-70
2023/06/27 04:55:50;;;;;;;13.32;7.53;;;;;;;;;;5073828;28;20070;-70
2023/06/27 04:58:18;;;;;;;7.93;6.45;;;;;;;;;;5072075;28;20561;-72
2023/06/27 05:00:46;;;;;;;18.83;7.65;;;;;;;;;;5073569;28;20466;-71
2023/06/27 05:03:13;;;;;;;15.80;6.45;;;;;;;;;;5073811;28;20024;-71
2023/06/27 05:05:39;;;;;;;10.43;6.72;;;;;;;;;;5074193;28;20446;-71
2023/06/27 05:08:05;;;;;;;10.43;6.78;;;;;;;;;;5088266;28;20028;-71
2023/06/27 05:10:31;;;;;;;11.38;6.47;;;;;;;;;;5088643;28;20560;-71
2023/06/27 05:12:58;;;;;;;16.23;6.57;;;;;;;;;;5073468;28;20040;-71
2023/06/27 05:15:23;;;;;;;11.20;6.72;;;;;;;;;;5081638;28;20099;-70
2023/06/27 05:17:52;;;;;;;13.23;6.70;;;;;;;;;;5072988;28;20040;-70
2023/06/27 05:20:19;;;;;;;15.38;6.63;;;;;;;;;;5081033;28;20051;-69
2023/06/27 05:22:45;;;;;;;18.38;7.03;;;;;;;;;;5091673;28;20047;-71
2023/06/27 05:25:11;;;;;;;10.38;6.45;;;;;;;;;;5092291;28;20042;-70
2023/06/27 05:27:38;;;;;;;11.02;6.45;;;;;;;;;;5093562;28;20055;-71
2023/06/27 05:30:04;;;;;;;16.42;6.38;;;;;;;;;;5093264;28;20031;-71
2023/06/27 05:32:30;;;;;;;11.13;6.38;;;;;;;;;;5080120;28;20391;-70
2023/06/27 05:34:57;;;;;;;12.23;5.90;;;;;;;;;;5071648;28;20040;-71
2023/06/27 05:37:23;;;;;;;7.28;5.13;;;;;;;;;;5073025;28;20460;-71
2023/06/27 05:39:49;;;;;;;11.32;5.72;;;;;;;;;;5072523;28;20089;-73
2023/06/27 05:42:14;;;;;;;9.88;5.82;;;;;;;;;;5038103;28;20139;-72
2023/06/27 05:44:40;;;;;;;13.40;6.18;;;;;;;;;;5072881;28;20052;-72
2023/06/27 05:47:06;;;;;;;9.98;6.30;;;;;;;;;;5070610;28;20395;-71
2023/06/27 05:49:32;;;;;;;8.43;5.60;;;;;;;;;;5080964;28;20031;-72
2023/06/27 05:51:58;;;;;;;8.43;6.00;;;;;;;;;;5086285;28;20055;-71
2023/06/27 05:54:23;;;;;;;14.85;6.47;;;;;;;;;;5092430;28;20106;-70
2023/06/27 05:56:49;;;;;;;10.23;5.97;;;;;;;;;;5092417;28;20086;-73
2023/06/27 05:59:15;;;;;;;12.93;6.45;;;;;;;;;;5092702;28;20051;-71
2023/06/27 06:01:41;;;;;;;11.18;6.00;;;;;;;;;;5081620;28;20047;-70
2023/06/27 06:04:07;;;;;;;12.52;5.70;;;;;;;;;;5071815;28;20096;-70
2023/06/27 06:06:38;;;;;;;11.80;5.72;;;;;;;;;;5070670;28;20040;-69
2023/06/27 06:09:05;;;;;;;8.02;4.95;;;;;;;;;;5072025;28;20048;-71
2023/06/27 06:11:34;;;;;;;13.70;5.50;;;;;;;;;;5072310;28;20025;-70
2023/06/27 06:14:03;;;;;;;12.50;5.82;;;;;;;;;;5072176;28;20051;-71
2023/06/27 06:16:33;;;;;;;12.30;5.90;;;;;;;;;;5070294;28;20021;-70
2023/06/27 06:18:59;;;;;;;12.80;6.15;;;;;;;;;;5075195;28;20028;-71
2023/06/27 06:21:25;;;;;;;14.43;5.20;;;;;;;;;;5075285;28;20032;-70
2023/06/27 06:23:51;;;;;;;9.52;5.43;;;;;;;;;;5071707;28;20036;-70
2023/06/27 06:26:16;;;;;;;12.88;6.50;;;;;;;;;;5071872;28;20078;-71
2023/06/27 06:28:42;;;;;;;11.50;5.60;;;;;;;;;;5072371;28;20033;-70
2023/06/27 06:31:10;;;;;;;7.50;5.22;;;;;;;;;;5050991;28;20119;-70
2023/06/27 06:33:38;;;;;;;8.38;5.63;;;;;;;;;;5051617;28;20430;-71
2023/06/27 06:36:05;;;;;;;8.85;5.40;;;;;;;;;;5057854;28;20017;-72
2023/06/27 06:38:32;;;;;;;7.45;5.40;;;;;;;;;;5075068;28;20116;-72
2023/06/27 06:40:58;;;;;;;11.10;6.07;;;;;;;;;;5082715;28;20672;-72
2023/06/27 06:43:26;;;;;;;10.48;5.97;;;;;;;;;;5091804;28;20119;-70
2023/06/27 06:45:52;;;;;;;8.55;5.30;;;;;;;;;;5081456;28;20520;-71
2023/06/27 06:48:21;;;;;;;8.55;5.45;;;;;;;;;;5051280;28;20094;-71
2023/06/27 06:50:51;;;;;;;12.95;6.30;;;;;;;;;;5051274;28;20136;-71
2023/06/27 06:53:19;;;;;;;11.32;4.93;;;;;;;;;;5057099;28;20036;-73
2023/06/27 06:55:45;;;;;;;9.57;5.20;;;;;;;;;;5072216;28;20529;-73
2023/06/27 06:58:13;;;;;;;9.38;5.40;;;;;;;;;;5083350;28;20035;-75
2023/06/27 07:00:39;;;;;;;7.47;5.07;;;;;;;;;;5085470;28;20032;-75
2023/06/27 07:03:09;;;;;;;6.75;4.60;;;;;;;;;;5051534;28;20072;-75
2023/06/27 07:05:36;;;;;;;8.27;5.05;;;;;;;;;;5066028;28;20029;-75
2023/06/27 07:08:05;;;;;;;9.50;5.25;;;;;;;;;;5066383;28;20071;-73
2023/06/27 07:10:32;;;;;;;6.50;4.75;;;;;;;;;;5066566;28;20503;-74
2023/06/27 07:12:59;;;;;;;7.97;5.22;;;;;;;;;;5073979;28;20428;-73
2023/06/27 07:15:29;;;;;;;6.68;5.35;;;;;;;;;;5069938;28;20040;-73
2023/06/27 07:17:55;;;;;;;8.50;5.60;;;;;;;;;;5068065;28;20017;-74
2023/06/27 07:20:22;;;;;;;9.20;5.78;;;;;;;;;;5068376;28;20036;-72
2023/06/27 07:22:49;;;;;;;7.00;4.93;;;;;;;;;;5068322;28;20174;-74
2023/06/27 07:25:15;;;;;;;7.38;5.03;;;;;;;;;;5068852;28;20482;-72
2023/06/27 07:27:42;;;;;;;8.75;5.38;;;;;;;;;;5080738;28;20036;-73
2023/06/27 07:30:09;;;;;;;10.40;5.25;;;;;;;;;;5091337;28;20044;-73
2023/06/27 07:32:35;;;;;;;8.30;5.43;;;;;;;;;;5091244;28;20043;-73
2023/06/27 07:35:01;;;;;;;11.05;5.70;;;;;;;;;;5091130;28;20040;-71
2023/06/27 07:37:27;;;;;;;10.45;6.30;;;;;;;;;;5091432;28;20569;-73
2023/06/27 07:39:53;;;;;;;5.85;4.75;;;;;;;;;;5090140;28;20032;-72
2023/06/27 07:42:18;;;;;;;7.80;5.20;;;;;;;;;;5063255;28;20040;-72
2023/06/27 07:44:45;;;;;;;7.05;4.88;;;;;;;;;;5066995;28;20581;-73
2023/06/27 07:47:10;;;;;;;7.22;4.88;;;;;;;;;;5085902;28;20486;-74
2023/06/27 07:49:39;;;;;;;7.43;5.90;;;;;;;;;;5092353;28;20047;-73
2023/06/27 07:52:09;;;;;;;6.43;5.05;;;;;;;;;;5100140;28;20031;-74
2023/06/27 07:54:35;;;;;;;8.23;5.35;;;;;;;;;;5091701;28;20059;-74
2023/06/27 07:57:01;;;;;;;8.18;5.43;;;;;;;;;;5079165;28;20070;-75
2023/06/27 07:59:28;;;;;;;8.07;5.30;;;;;;;;;;5077778;28;20542;-72
2023/06/27 08:01:54;;;;;;;7.47;5.40;;;;;;;;;;5083139;28;20036;-72
2023/06/27 08:04:23;;;;;;;7.00;5.38;;;;;;;;;;5090298;28;20036;-73
2023/06/27 08:06:49;;;;;;;7.85;5.25;;;;;;;;;;5091576;28;20473;-73
2023/06/27 08:09:15;;;;;;;8.70;5.63;;;;;;;;;;5091173;28;20044;-74
2023/06/27 08:11:41;;;;;;;10.05;5.80;;;;;;;;;;5090012;28;20027;-72
2023/06/27 08:14:07;;;;;;;11.93;5.55;;;;;;;;;;5090942;28;20035;-74
2023/06/27 08:16:37;;;;;;;7.47;5.20;;;;;;;;;;5090854;28;20547;-74
2023/06/27 08:19:03;;;;;;;8.98;5.63;;;;;;;;;;5083644;28;20555;-72
2023/06/27 08:21:28;;;;;;;9.93;5.53;;;;;;;;;;5074272;28;20012;-73
2023/06/27 08:23:54;;;;;;;10.02;5.60;;;;;;;;;;5084357;28;20127;-72
2023/06/27 08:26:20;;;;;;;9.07;5.70;;;;;;;;;;5093480;28;20020;-73
2023/06/27 08:28:46;;;;;;;8.05;5.55;;;;;;;;;;5070919;28;20047;-74
2023/06/27 08:31:12;;;;;;;6.93;5.45;;;;;;;;;;5072962;28;20074;-74
2023/06/27 08:33:38;;;;;;;8.00;5.40;;;;;;;;;;5073094;28;20036;-74
2023/06/27 08:36:04;;;;;;;7.03;5.15;;;;;;;;;;5072501;28;20073;-72
2023/06/27 08:38:30;;;;;;;10.48;6.15;;;;;;;;;;5070649;28;20036;-73
2023/06/27 08:40:56;;;;;;;9.63;5.80;;;;;;;;;;5073217;28;20050;-74
2023/06/27 08:43:22;;;;;;;9.02;6.00;;;;;;;;;;5072314;28;20070;-72
2023/06/27 08:45:49;;;;;;;6.97;5.18;;;;;;;;;;5074244;28;20051;-73
2023/06/27 08:48:17;;;;;;;9.55;6.22;;;;;;;;;;5071605;28;20054;-72
2023/06/27 08:50:44;;;;;;;6.60;5.40;;;;;;;;;;5073066;28;20028;-73
2023/06/27 08:53:17;;;;;;;9.23;5.30;;;;;;;;;;5072675;28;20486;-73
2023/06/27 08:56:13;;;;;;;10.52;5.63;;;;;;;;;;5072300;28;20082;-74
2023/06/27 08:58:46;;;;;;;7.18;5.40;;;;;;;;;;5069736;28;20035;-73
2023/06/27 09:01:12;;;;;;;10.75;5.47;;;;;;;;;;5069245;28;20029;-72
2023/06/27 09:03:40;;;;;;;10.70;5.32;;;;;;;;;;5072882;28;20036;-74
2023/06/27 09:06:07;;;;;;;7.60;5.38;;;;;;;;;;5068825;28;20035;-73
2023/06/27 09:08:34;;;;;;;6.22;5.10;;;;;;;;;;5069193;28;20068;-71
2023/06/27 09:11:01;;;;;;;7.38;6.10;;;;;;;;;;5066622;28;20498;-72
2023/06/27 09:13:27;;;;;;;6.85;4.95;;;;;;;;;;5069566;28;20020;-72
2023/06/27 09:15:53;;;;;;;6.43;4.75;;;;;;;;;;5070989;28;20036;-72
2023/06/27 09:18:19;;;;;;;7.25;5.18;;;;;;;;;;5068516;28;20025;-72
2023/06/27 09:20:45;;;;;;;7.65;5.47;;;;;;;;;;5087825;28;20039;-72
2023/06/27 09:23:11;;;;;;;10.50;5.82;;;;;;;;;;5073054;28;20028;-72
2023/06/27 09:25:37;;;;;;;9.70;5.50;;;;;;;;;;5072241;28;20024;-72
2023/06/27 09:28:16;;;;;;;7.35;5.25;;;;;;;;;;5073411;28;20016;-72
2023/06/27 09:30:56;;;;;;;7.63;5.90;;;;;;;;;;5068878;28;20640;-72
2023/06/27 09:33:22;;;;;;;7.47;5.45;;;;;;;;;;5069798;28;20035;-73
2023/06/27 09:35:47;;;;;;;12.13;5.95;;;;;;;;;;5071456;28;20043;-71
2023/06/27 09:38:13;;;;;;;8.18;5.28;;;;;;;;;;5070526;28;20035;-72
2023/06/27 09:40:40;;;;;;;8.85;6.22;;;;;;;;;;5068625;28;20029;-72
2023/06/27 09:43:08;;;;;;;10.85;5.57;;;;;;;;;;5071502;28;20029;-72
2023/06/27 09:45:33;;;;;;;8.07;5.70;;;;;;;;;;5077676;28;20024;-73
2023/06/27 09:47:59;;;;;;;7.43;6.03;;;;;;;;;;5081219;28;20375;-72
2023/06/27 09:50:30;;;;;;;13.63;6.00;;;;;;;;;;5071238;28;20028;-71
2023/06/27 09:53:02;;;;;;;6.95;5.70;;;;;;;;;;5071546;28;20044;-72
2023/06/27 09:55:29;;;;;;;7.53;5.93;;;;;;;;;;5072234;28;20114;-72
2023/06/27 09:57:56;;;;;;;8.90;5.75;;;;;;;;;;5072206;28;20444;-72
2023/06/27 10:00:22;;;;;;;9.80;6.30;;;;;;;;;;5067378;28;20040;-72
2023/06/27 10:02:51;;;;;;;11.82;6.03;;;;;;;;;;5069191;28;20025;-73
2023/06/27 10:05:20;;;;;;;10.02;5.70;;;;;;;;;;5066217;28;20036;-73
2023/06/27 10:07:52;;;;;;;9.93;6.30;;;;;;;;;;5091571;28;20418;-72
2023/06/27 10:10:20;;;;;;;9.65;5.97;;;;;;;;;;5091679;28;20404;-72
2023/06/27 10:12:46;;;;;;;7.43;6.10;;;;;;;;;;5091650;28;20519;-71
2023/06/27 10:15:12;;;;;;;9.13;5.70;;;;;;;;;;5091723;28;20503;-73
2023/06/27 10:17:38;;;;;;;9.40;5.75;;;;;;;;;;5091619;28;20119;-72
2023/06/27 10:20:11;;;;;;;6.63;5.55;;;;;;;;;;5090309;28;20050;-72
2023/06/27 10:22:38;;;;;;;;;;;;;;;;;;5091474;28;20044;-72
2023/06/27 10:25:05;;;;;;;8.75;5.63;;;;;;;;;;5090180;28;19908;-71
2023/06/27 10:27:39;;;;;;;8.85;6.13;;;;;;;;;;5090223;28;20097;-73
2023/06/27 10:30:13;;;;;;;8.00;5.88;;;;;;;;;;5078650;28;20028;-71
2023/06/27 10:32:44;;;;;;;10.75;6.35;;;;;;;;;;5069931;28;20024;-73
2023/06/27 10:35:24;;;;;;;10.88;6.00;;;;;;;;;;5071515;28;20052;-73
2023/06/27 10:38:14;;;;;;;7.18;5.40;;;;;;;;;;5071092;28;20154;-74
2023/06/27 10:41:10;;;;;;;9.35;5.72;;;;;;;;;;5070317;28;20033;-73
2023/06/27 10:43:52;;;;;;;7.22;5.43;;;;;;;;;;5061038;28;20047;-73
2023/06/27 10:46:31;;;;;;;9.10;6.23;;;;;;;;;;5079784;28;20032;-72
2023/06/27 10:49:04;;;;;;;13.63;6.18;;;;;;;;;;5070810;28;20358;-73
2023/06/27 10:52:00;;;;;;;7.72;5.53;;;;;;;;;;5071065;28;20498;-71
2023/06/27 10:54:26;;;;;;;9.18;5.63;;;;;;;;;;5075851;28;20506;-72
2023/06/27 10:56:56;;;;;;;11.55;6.03;;;;;;;;;;5065367;28;20062;-72
2023/06/27 10:59:23;;;;;;;13.45;6.10;;;;;;;;;;5062872;28;20090;-72
2023/06/27 11:01:59;;;;;;;7.85;5.68;;;;;;;;;;5066136;28;20163;-72
2023/06/27 11:04:44;;;;;;;7.00;5.53;;;;;;;;;;5059188;28;20039;-72
2023/06/27 11:07:19;;;;;;;8.00;5.80;;;;;;;;;;5076594;28;20082;-72
2023/06/27 11:09:54;;;;;;;8.80;5.90;;;;;;;;;;5077538;28;20045;-73
2023/06/27 11:12:21;;;;;;;6.80;5.40;;;;;;;;;;5062905;28;20115;-73
2023/06/27 11:14:53;;;;;;;6.75;5.07;;;;;;;;;;5070095;28;20509;-72
2023/06/27 11:17:20;;;;;;;11.10;5.28;;;;;;;;;;5074353;28;20033;-72
2023/06/27 11:19:45;;;;;;;11.32;5.97;;;;;;;;;;5070717;28;20509;-70
2023/06/27 11:22:11;;;;;;;12.20;5.45;;;;;;;;;;5079514;28;20085;-72
2023/06/27 11:24:39;;;;;;;8.55;5.85;;;;;;;;;;5078364;28;20103;-72
2023/06/27 11:27:07;;;;;;;7.45;5.20;;;;;;;;;;5068060;28;20064;-71
2023/06/27 11:29:33;;;;;;;9.45;4.90;;;;;;;;;;5083392;28;20036;-73
2023/06/27 11:31:59;;;;;;;6.55;5.50;;;;;;;;;;5074088;28;20032;-74
2023/06/27 11:34:27;;;;;;;7.68;4.88;;;;;;;;;;5071428;28;20062;-71
2023/06/27 11:36:54;;;;;;;8.85;6.00;;;;;;;;;;5071831;28;20036;-71
2023/06/27 11:39:20;;;;;;;13.65;9.02;;;;;;;;;;5074352;28;20039;-73
2023/06/27 11:41:46;;;;;;;10.07;4.72;;;;;;;;;;5076038;28;20105;-72
2023/06/27 11:44:14;;;;;;;7.82;5.13;;;;;;;;;;5072119;28;20463;-72
2023/06/27 11:46:50;;;;;;;7.55;5.00;;;;;;;;;;5081772;28;20101;-74
2023/06/27 11:49:16;;;;;;;16.73;11.35;;;;;;;;;;5071764;28;20040;-72
2023/06/27 11:51:42;;;;;;;8.48;5.00;;;;;;;;;;5080165;28;20023;-72
2023/06/27 11:54:08;;;;;;;7.90;5.10;;;;;;;;;;5083165;28;20031;-71
2023/06/27 11:56:38;;;;;;;7.72;5.10;;;;;;;;;;5074566;28;20030;-71
2023/06/27 11:59:06;;;;;;;6.85;5.32;;;;;;;;;;5074471;28;20513;-72
2023/06/27 12:01:33;;;;;;;8.52;5.15;;;;;;;;;;5083088;28;20035;-71
2023/06/27 12:04:00;;;;;;;7.20;4.72;;;;;;;;;;5078378;28;20045;-74
2023/06/27 12:06:32;;;;;;;7.95;5.13;;;;;;;;;;5078695;28;20059;-74
2023/06/27 12:08:58;;;;;;;9.57;4.95;;;;;;;;;;5076633;28;20033;-72
2023/06/27 12:11:33;;;;;;;9.30;5.50;;;;;;;;;;5078320;28;20367;-71
2023/06/27 12:13:59;;;;;;;8.52;5.18;;;;;;;;;;5086356;28;20042;-74
2023/06/27 12:16:32;;;;;;;11.50;5.70;;;;;;;;;;5082873;28;20509;-72
2023/06/27 12:19:07;;;;;;;8.63;5.70;;;;;;;;;;5074392;28;20028;-71
2023/06/27 12:21:33;;;;;;;5.88;4.72;;;;;;;;;;5082633;28;20047;-71
2023/06/27 12:24:01;;;;;;;8.90;4.97;;;;;;;;;;5082735;28;20020;-72
2023/06/27 12:26:27;;;;;;;6.63;5.47;;;;;;;;;;5070774;28;20081;-71
2023/06/27 12:29:03;;;;;;;11.98;6.25;;;;;;;;;;5078697;28;20025;-73
2023/06/27 12:31:30;;;;;;;9.07;5.22;;;;;;;;;;5082798;28;20033;-72
2023/06/27 12:33:57;;;;;;;7.93;5.05;;;;;;;;;;5074140;28;20074;-73
2023/06/27 12:36:25;;;;;;;8.90;5.20;;;;;;;;;;5082564;28;20032;-72
2023/06/27 12:38:52;;;;;;;6.25;4.78;;;;;;;;;;5070453;28;20016;-73
2023/06/27 12:41:18;;;;;;;6.97;5.30;;;;;;;;;;5068167;28;20573;-72
2023/06/27 12:43:45;;;;;;;5.45;4.50;;;;;;;;;;5082808;28;20036;-74
2023/06/27 12:46:14;;;;;;;6.07;4.60;;;;;;;;;;5073829;28;20060;-75
2023/06/27 12:48:41;;;;;;;6.63;4.88;;;;;;;;;;5072601;28;20494;-72
2023/06/27 12:51:08;;;;;;;6.90;5.05;;;;;;;;;;5074032;28;20064;-73
2023/06/27 12:53:35;;;;;;;10.50;5.25;;;;;;;;;;5072782;28;20012;-72
2023/06/27 12:56:04;;;;;;;7.88;5.05;;;;;;;;;;5086824;28;20052;-73
2023/06/27 12:58:30;;;;;;;7.22;4.90;;;;;;;;;;5076898;28;20366;-73
2023/06/27 13:00:59;;;;;;;6.50;4.75;;;;;;;;;;5082645;28;20102;-73
2023/06/27 13:03:28;;;;;;;8.65;5.53;;;;;;;;;;5086455;28;20032;-74
2023/06/27 13:05:54;;;;;;;6.80;4.72;;;;;;;;;;5088654;28;20036;-73
2023/06/27 13:08:19;;;;;;;5.28;4.68;;;;;;;;;;5078999;28;20521;-73
2023/06/27 13:10:45;;;;;;;7.68;5.57;;;;;;;;;;5052793;28;20392;-73
2023/06/27 13:13:11;;;;;;;7.40;5.07;;;;;;;;;;5071303;28;20382;-71
2023/06/27 13:15:37;;;;;;;8.32;4.80;;;;;;;;;;5070338;28;20147;-75
2023/06/27 13:18:03;;;;;;;7.68;5.10;;;;;;;;;;5057306;28;20028;-73
2023/06/27 13:20:29;;;;;;;6.60;4.90;;;;;;;;;;5038804;28;20021;-72
2023/06/27 13:22:55;;;;;;;6.68;4.60;;;;;;;;;;5051760;28;20497;-75
2023/06/27 13:25:22;;;;;;;7.85;4.78;;;;;;;;;;5051478;28;20503;-75
2023/06/27 13:27:51;;;;;;;7.45;4.93;;;;;;;;;;5052002;28;20021;-72
2023/06/27 13:30:17;;;;;;;7.03;4.53;;;;;;;;;;5034067;28;20045;-71
2023/06/27 13:32:43;;;;;;;7.82;4.88;;;;;;;;;;5052862;28;20017;-74
2023/06/27 13:35:09;;;;;;;6.25;4.70;;;;;;;;;;5052744;28;20055;-72
2023/06/27 13:37:36;;;;;;;6.22;4.75;;;;;;;;;;5053015;28;20036;-73
2023/06/27 13:40:04;;;;;;;8.13;5.00;;;;;;;;;;5054290;28;20093;-72
2023/06/27 13:42:30;;;;;;;8.10;5.32;;;;;;;;;;5053161;28;20538;-72
2023/06/27 13:44:56;;;;;;;5.93;4.75;;;;;;;;;;5055048;28;20232;-72
2023/06/27 13:47:21;;;;;;;6.60;4.75;;;;;;;;;;5072750;28;20024;-73
2023/06/27 13:49:47;;;;;;;6.65;4.75;;;;;;;;;;5072291;28;20044;-74
2023/06/27 13:52:13;;;;;;;5.72;4.43;;;;;;;;;;5071585;28;20035;-74
2023/06/27 13:54:41;;;;;;;9.35;5.13;;;;;;;;;;5072314;28;20048;-75
2023/06/27 13:57:07;;;;;;;8.32;5.10;;;;;;;;;;5072508;28;20031;-74
2023/06/27 13:59:34;;;;;;;6.32;4.65;;;;;;;;;;5072036;28;20032;-74
2023/06/27 14:02:00;;;;;;;8.68;5.32;;;;;;;;;;5072404;28;20111;-75
2023/06/27 14:04:26;;;;;;;7.70;5.00;;;;;;;;;;5072395;28;20048;-75
2023/06/27 14:06:53;;;;;;;5.32;4.43;;;;;;;;;;5071892;28;20082;-76
2023/06/27 14:09:19;;;;;;;9.43;4.47;;;;;;;;;;5068035;28;20040;-74
2023/06/27 14:11:49;;;;;;;6.53;4.43;;;;;;;;;;5081548;28;20032;-74
2023/06/27 14:14:16;;;;;;;5.97;4.78;;;;;;;;;;5071906;28;20115;-75
2023/06/27 14:16:42;;;;;;;8.68;5.25;;;;;;;;;;5082046;28;20052;-75
2023/06/27 14:19:08;;;;;;;6.88;4.85;;;;;;;;;;5091276;28;20040;-74
2023/06/27 14:21:36;;;;;;;6.32;4.53;;;;;;;;;;5091210;28;20160;-73
2023/06/27 14:24:04;;;;;;;6.25;4.50;;;;;;;;;;5092398;28;20090;-76
2023/06/27 14:26:32;;;;;;;7.22;4.50;;;;;;;;;;5091110;28;20047;-75
2023/06/27 14:28:57;;;;;;;9.23;4.65;;;;;;;;;;5091833;28;20345;-76
2023/06/27 14:31:24;;;;;;;6.88;4.30;;;;;;;;;;5092118;28;20492;-73
2023/06/27 14:33:50;;;;;;;6.32;4.72;;;;;;;;;;5086193;28;20059;-75
2023/06/27 14:36:16;;;;;;;11.60;4.57;;;;;;;;;;5070283;28;20068;-74
2023/06/27 14:38:42;;;;;;;7.63;4.53;;;;;;;;;;5088159;28;20033;-75